sensor_id;sensor_type;location;lat;lon;timestamp;P1;durP1;ratioP1;P2;durP2;ratioP2
32216;SDS011;18709;51.140;4.088;2022-10-31T00:02:03;9.38;;;5.80;;
32216;SDS011;18709;51.140;4.088;2022-10-31T00:04:28;9.80;;;5.28;;
32216;SDS011;18709;51.140;4.088;2022-10-31T00:06:54;9.40;;;5.75;;
32216;SDS011;18709;51.140;4.088;2022-10-31T00:09:20;11.13;;;5.65;;
32216;SDS011;18709;51.140;4.088;2022-10-31T00:11:45;9.27;;;5.25;;
32216;SDS011;18709;51.140;4.088;2022-10-31T00:14:11;11.40;;;5.18;;
32216;SDS011;18709;51.140;4.088;2022-10-31T00:16:37;10.73;;;5.95;;
32216;SDS011;18709;51.140;4.088;2022-10-31T00:19:03;10.02;;;6.00;;
32216;SDS011;18709;51.140;4.088;2022-10-31T00:21:31;12.38;;;5.65;;
32216;SDS011;18709;51.140;4.088;2022-10-31T00:23:57;18.40;;;6.97;;
32216;SDS011;18709;51.140;4.088;2022-10-31T00:26:23;16.88;;;6.40;;
32216;SDS011;18709;51.140;4.088;2022-10-31T00:28:51;16.05;;;6.28;;
32216;SDS011;18709;51.140;4.088;2022-10-31T00:31:17;12.45;;;5.68;;
32216;SDS011;18709;51.140;4.088;2022-10-31T00:33:42;13.65;;;5.75;;
32216;SDS011;18709;51.140;4.088;2022-10-31T00:36:11;9.88;;;6.57;;
32216;SDS011;18709;51.140;4.088;2022-10-31T00:38:41;16.20;;;6.65;;
32216;SDS011;18709;51.140;4.088;2022-10-31T00:41:07;14.10;;;6.38;;
32216;SDS011;18709;51.140;4.088;2022-10-31T00:43:34;16.88;;;6.57;;
32216;SDS011;18709;51.140;4.088;2022-10-31T00:46:00;13.98;;;6.22;;
32216;SDS011;18709;51.140;4.088;2022-10-31T00:48:25;14.73;;;7.45;;
32216;SDS011;18709;51.140;4.088;2022-10-31T00:50:51;11.55;;;6.13;;
32216;SDS011;18709;51.140;4.088;2022-10-31T00:53:17;16.13;;;6.30;;
32216;SDS011;18709;51.140;4.088;2022-10-31T00:55:42;14.77;;;7.00;;
32216;SDS011;18709;51.140;4.088;2022-10-31T00:58:08;14.23;;;7.65;;
32216;SDS011;18709;51.140;4.088;2022-10-31T01:00:34;14.95;;;7.47;;
32216;SDS011;18709;51.140;4.088;2022-10-31T01:02:59;14.18;;;6.88;;
32216;SDS011;18709;51.140;4.088;2022-10-31T01:05:25;14.85;;;7.75;;
32216;SDS011;18709;51.140;4.088;2022-10-31T01:07:51;15.55;;;7.43;;
32216;SDS011;18709;51.140;4.088;2022-10-31T01:10:16;17.52;;;7.28;;
32216;SDS011;18709;51.140;4.088;2022-10-31T01:12:44;16.90;;;7.50;;
32216;SDS011;18709;51.140;4.088;2022-10-31T01:15:11;13.48;;;7.57;;
32216;SDS011;18709;51.140;4.088;2022-10-31T01:17:38;17.38;;;8.13;;
32216;SDS011;18709;51.140;4.088;2022-10-31T01:20:04;15.38;;;8.18;;
32216;SDS011;18709;51.140;4.088;2022-10-31T01:22:32;13.20;;;7.55;;
32216;SDS011;18709;51.140;4.088;2022-10-31T01:24:58;20.58;;;8.52;;
32216;SDS011;18709;51.140;4.088;2022-10-31T01:27:23;13.75;;;8.32;;
32216;SDS011;18709;51.140;4.088;2022-10-31T01:29:49;18.45;;;8.30;;
32216;SDS011;18709;51.140;4.088;2022-10-31T01:32:15;18.98;;;8.30;;
32216;SDS011;18709;51.140;4.088;2022-10-31T01:34:41;16.98;;;9.15;;
32216;SDS011;18709;51.140;4.088;2022-10-31T01:37:06;18.50;;;9.93;;
32216;SDS011;18709;51.140;4.088;2022-10-31T01:39:32;16.67;;;9.82;;
32216;SDS011;18709;51.140;4.088;2022-10-31T01:41:58;19.17;;;9.45;;
32216;SDS011;18709;51.140;4.088;2022-10-31T01:47:05;16.63;;;9.40;;
32216;SDS011;18709;51.140;4.088;2022-10-31T01:49:40;18.85;;;8.82;;
32216;SDS011;18709;51.140;4.088;2022-10-31T01:54:48;21.45;;;8.95;;
32216;SDS011;18709;51.140;4.088;2022-10-31T01:57:18;18.02;;;8.80;;
32216;SDS011;18709;51.140;4.088;2022-10-31T01:59:47;16.35;;;8.95;;
32216;SDS011;18709;51.140;4.088;2022-10-31T02:02:17;21.83;;;9.68;;
32216;SDS011;18709;51.140;4.088;2022-10-31T02:04:44;17.75;;;7.93;;
32216;SDS011;18709;51.140;4.088;2022-10-31T02:07:16;20.40;;;8.68;;
32216;SDS011;18709;51.140;4.088;2022-10-31T02:12:30;20.35;;;9.00;;
32216;SDS011;18709;51.140;4.088;2022-10-31T02:14:57;17.35;;;8.10;;
32216;SDS011;18709;51.140;4.088;2022-10-31T02:17:24;13.40;;;8.38;;
32216;SDS011;18709;51.140;4.088;2022-10-31T02:20:01;13.68;;;8.65;;
32216;SDS011;18709;51.140;4.088;2022-10-31T02:31:31;18.95;;;9.50;;
32216;SDS011;18709;51.140;4.088;2022-10-31T02:34:20;20.30;;;8.90;;
32216;SDS011;18709;51.140;4.088;2022-10-31T02:37:07;14.38;;;8.70;;
32216;SDS011;18709;51.140;4.088;2022-10-31T02:39:43;13.43;;;7.68;;
32216;SDS011;18709;51.140;4.088;2022-10-31T02:45:07;16.75;;;8.82;;
32216;SDS011;18709;51.140;4.088;2022-10-31T02:47:43;20.63;;;9.40;;
32216;SDS011;18709;51.140;4.088;2022-10-31T02:53:03;17.38;;;9.30;;
32216;SDS011;18709;51.140;4.088;2022-10-31T02:57:55;16.65;;;9.07;;
32216;SDS011;18709;51.140;4.088;2022-10-31T03:00:25;18.88;;;8.68;;
32216;SDS011;18709;51.140;4.088;2022-10-31T03:15:51;15.70;;;7.75;;
32216;SDS011;18709;51.140;4.088;2022-10-31T03:21:42;16.42;;;7.93;;
32216;SDS011;18709;51.140;4.088;2022-10-31T03:23:48;13.93;;;7.05;;
32216;SDS011;18709;51.140;4.088;2022-10-31T03:26:15;15.55;;;7.55;;
32216;SDS011;18709;51.140;4.088;2022-10-31T03:28:55;15.55;;;8.45;;
32216;SDS011;18709;51.140;4.088;2022-10-31T03:31:27;18.65;;;7.68;;
32216;SDS011;18709;51.140;4.088;2022-10-31T03:33:58;14.55;;;7.28;;
32216;SDS011;18709;51.140;4.088;2022-10-31T03:36:26;12.95;;;7.93;;
32216;SDS011;18709;51.140;4.088;2022-10-31T03:38:53;14.32;;;7.05;;
32216;SDS011;18709;51.140;4.088;2022-10-31T03:41:23;14.05;;;7.20;;
32216;SDS011;18709;51.140;4.088;2022-10-31T03:43:58;12.05;;;6.97;;
32216;SDS011;18709;51.140;4.088;2022-10-31T03:46:29;14.10;;;7.55;;
32216;SDS011;18709;51.140;4.088;2022-10-31T03:48:55;16.95;;;7.55;;
32216;SDS011;18709;51.140;4.088;2022-10-31T03:53:57;11.35;;;7.28;;
32216;SDS011;18709;51.140;4.088;2022-10-31T03:56:33;14.90;;;8.25;;
32216;SDS011;18709;51.140;4.088;2022-10-31T03:59:04;15.07;;;6.93;;
32216;SDS011;18709;51.140;4.088;2022-10-31T04:01:35;11.90;;;6.95;;
32216;SDS011;18709;51.140;4.088;2022-10-31T04:04:05;15.65;;;7.18;;
32216;SDS011;18709;51.140;4.088;2022-10-31T04:06:31;14.98;;;7.28;;
32216;SDS011;18709;51.140;4.088;2022-10-31T04:09:02;15.02;;;7.43;;
32216;SDS011;18709;51.140;4.088;2022-10-31T04:11:30;14.88;;;8.05;;
32216;SDS011;18709;51.140;4.088;2022-10-31T04:14:00;13.82;;;7.45;;
32216;SDS011;18709;51.140;4.088;2022-10-31T04:16:26;15.45;;;7.70;;
32216;SDS011;18709;51.140;4.088;2022-10-31T04:18:53;16.83;;;7.40;;
32216;SDS011;18709;51.140;4.088;2022-10-31T04:21:19;14.10;;;7.57;;
32216;SDS011;18709;51.140;4.088;2022-10-31T04:23:53;14.75;;;7.82;;
32216;SDS011;18709;51.140;4.088;2022-10-31T04:26:19;14.23;;;7.80;;
32216;SDS011;18709;51.140;4.088;2022-10-31T04:28:45;13.70;;;6.93;;
32216;SDS011;18709;51.140;4.088;2022-10-31T04:31:10;13.80;;;7.88;;
32216;SDS011;18709;51.140;4.088;2022-10-31T04:33:37;13.50;;;7.35;;
32216;SDS011;18709;51.140;4.088;2022-10-31T04:36:03;13.27;;;6.97;;
32216;SDS011;18709;51.140;4.088;2022-10-31T04:38:29;14.57;;;7.25;;
32216;SDS011;18709;51.140;4.088;2022-10-31T04:40:55;11.80;;;7.65;;
32216;SDS011;18709;51.140;4.088;2022-10-31T04:43:21;15.73;;;7.97;;
32216;SDS011;18709;51.140;4.088;2022-10-31T04:45:47;14.63;;;7.25;;
32216;SDS011;18709;51.140;4.088;2022-10-31T04:48:13;16.63;;;7.45;;
32216;SDS011;18709;51.140;4.088;2022-10-31T04:50:39;14.65;;;7.15;;
32216;SDS011;18709;51.140;4.088;2022-10-31T04:53:05;14.68;;;7.93;;
32216;SDS011;18709;51.140;4.088;2022-10-31T04:55:31;12.75;;;7.15;;
32216;SDS011;18709;51.140;4.088;2022-10-31T04:57:56;14.88;;;7.20;;
32216;SDS011;18709;51.140;4.088;2022-10-31T05:00:22;13.15;;;7.10;;
32216;SDS011;18709;51.140;4.088;2022-10-31T05:02:49;12.85;;;6.88;;
32216;SDS011;18709;51.140;4.088;2022-10-31T05:05:17;11.15;;;7.20;;
32216;SDS011;18709;51.140;4.088;2022-10-31T05:07:45;12.50;;;7.07;;
32216;SDS011;18709;51.140;4.088;2022-10-31T05:10:14;15.75;;;6.85;;
32216;SDS011;18709;51.140;4.088;2022-10-31T05:12:45;14.32;;;7.32;;
32216;SDS011;18709;51.140;4.088;2022-10-31T05:15:15;13.10;;;7.28;;
32216;SDS011;18709;51.140;4.088;2022-10-31T05:17:42;16.48;;;7.40;;
32216;SDS011;18709;51.140;4.088;2022-10-31T05:20:08;15.70;;;7.15;;
32216;SDS011;18709;51.140;4.088;2022-10-31T05:22:35;15.13;;;7.38;;
32216;SDS011;18709;51.140;4.088;2022-10-31T05:25:01;16.55;;;7.10;;
32216;SDS011;18709;51.140;4.088;2022-10-31T05:27:26;17.10;;;7.25;;
32216;SDS011;18709;51.140;4.088;2022-10-31T05:29:52;12.60;;;6.80;;
32216;SDS011;18709;51.140;4.088;2022-10-31T05:32:18;12.02;;;7.13;;
32216;SDS011;18709;51.140;4.088;2022-10-31T05:34:43;14.30;;;6.97;;
32216;SDS011;18709;51.140;4.088;2022-10-31T05:37:09;16.20;;;7.40;;
32216;SDS011;18709;51.140;4.088;2022-10-31T05:39:35;14.80;;;7.05;;
32216;SDS011;18709;51.140;4.088;2022-10-31T05:42:00;21.20;;;6.97;;
32216;SDS011;18709;51.140;4.088;2022-10-31T05:44:26;13.85;;;6.40;;
32216;SDS011;18709;51.140;4.088;2022-10-31T05:46:52;14.18;;;6.35;;
32216;SDS011;18709;51.140;4.088;2022-10-31T05:49:17;12.32;;;6.13;;
32216;SDS011;18709;51.140;4.088;2022-10-31T05:51:43;13.02;;;6.63;;
32216;SDS011;18709;51.140;4.088;2022-10-31T05:54:09;12.30;;;6.95;;
32216;SDS011;18709;51.140;4.088;2022-10-31T05:56:34;14.45;;;6.53;;
32216;SDS011;18709;51.140;4.088;2022-10-31T05:59:00;15.00;;;6.60;;
32216;SDS011;18709;51.140;4.088;2022-10-31T06:01:26;12.65;;;7.00;;
32216;SDS011;18709;51.140;4.088;2022-10-31T06:03:51;18.63;;;7.10;;
32216;SDS011;18709;51.140;4.088;2022-10-31T06:06:17;14.07;;;6.88;;
32216;SDS011;18709;51.140;4.088;2022-10-31T06:08:43;11.48;;;5.97;;
32216;SDS011;18709;51.140;4.088;2022-10-31T06:11:08;17.42;;;6.93;;
32216;SDS011;18709;51.140;4.088;2022-10-31T06:13:34;14.93;;;6.88;;
32216;SDS011;18709;51.140;4.088;2022-10-31T06:15:59;11.30;;;6.43;;
32216;SDS011;18709;51.140;4.088;2022-10-31T06:18:25;13.10;;;6.88;;
32216;SDS011;18709;51.140;4.088;2022-10-31T06:20:51;13.15;;;6.38;;
32216;SDS011;18709;51.140;4.088;2022-10-31T06:23:16;14.25;;;7.72;;
32216;SDS011;18709;51.140;4.088;2022-10-31T06:25:42;14.45;;;7.20;;
32216;SDS011;18709;51.140;4.088;2022-10-31T06:28:08;16.77;;;7.32;;
32216;SDS011;18709;51.140;4.088;2022-10-31T06:30:33;14.00;;;7.50;;
32216;SDS011;18709;51.140;4.088;2022-10-31T06:33:03;16.23;;;8.48;;
32216;SDS011;18709;51.140;4.088;2022-10-31T06:35:29;13.98;;;8.77;;
32216;SDS011;18709;51.140;4.088;2022-10-31T06:37:55;15.95;;;9.23;;
32216;SDS011;18709;51.140;4.088;2022-10-31T06:40:21;18.58;;;9.82;;
32216;SDS011;18709;51.140;4.088;2022-10-31T06:42:47;17.33;;;10.10;;
32216;SDS011;18709;51.140;4.088;2022-10-31T06:45:20;19.70;;;10.00;;
32216;SDS011;18709;51.140;4.088;2022-10-31T06:47:53;18.70;;;10.20;;
32216;SDS011;18709;51.140;4.088;2022-10-31T06:50:19;15.80;;;9.82;;
32216;SDS011;18709;51.140;4.088;2022-10-31T06:52:52;19.50;;;10.60;;
32216;SDS011;18709;51.140;4.088;2022-10-31T06:55:20;23.20;;;10.55;;
32216;SDS011;18709;51.140;4.088;2022-10-31T06:57:57;24.13;;;12.45;;
32216;SDS011;18709;51.140;4.088;2022-10-31T07:00:25;26.20;;;12.90;;
32216;SDS011;18709;51.140;4.088;2022-10-31T07:02:52;23.63;;;12.32;;
32216;SDS011;18709;51.140;4.088;2022-10-31T07:05:38;24.17;;;12.85;;
32216;SDS011;18709;51.140;4.088;2022-10-31T07:08:05;23.05;;;12.40;;
32216;SDS011;18709;51.140;4.088;2022-10-31T07:10:33;19.73;;;11.95;;
32216;SDS011;18709;51.140;4.088;2022-10-31T07:13:01;23.60;;;12.43;;
32216;SDS011;18709;51.140;4.088;2022-10-31T07:15:32;22.65;;;11.93;;
32216;SDS011;18709;51.140;4.088;2022-10-31T07:17:59;20.88;;;12.88;;
32216;SDS011;18709;51.140;4.088;2022-10-31T07:20:29;23.73;;;11.80;;
32216;SDS011;18709;51.140;4.088;2022-10-31T07:22:55;28.05;;;12.98;;
32216;SDS011;18709;51.140;4.088;2022-10-31T07:25:22;23.70;;;12.55;;
32216;SDS011;18709;51.140;4.088;2022-10-31T07:27:48;22.27;;;12.07;;
32216;SDS011;18709;51.140;4.088;2022-10-31T07:30:14;22.88;;;12.45;;
32216;SDS011;18709;51.140;4.088;2022-10-31T07:32:48;19.00;;;12.15;;
32216;SDS011;18709;51.140;4.088;2022-10-31T07:35:16;20.95;;;12.18;;
32216;SDS011;18709;51.140;4.088;2022-10-31T07:37:43;29.42;;;13.20;;
32216;SDS011;18709;51.140;4.088;2022-10-31T07:40:09;28.70;;;13.27;;
32216;SDS011;18709;51.140;4.088;2022-10-31T07:42:36;25.40;;;13.18;;
32216;SDS011;18709;51.140;4.088;2022-10-31T07:45:03;23.92;;;13.35;;
32216;SDS011;18709;51.140;4.088;2022-10-31T07:47:29;18.83;;;11.90;;
32216;SDS011;18709;51.140;4.088;2022-10-31T07:50:02;26.70;;;12.65;;
32216;SDS011;18709;51.140;4.088;2022-10-31T07:52:28;24.33;;;12.05;;
32216;SDS011;18709;51.140;4.088;2022-10-31T07:54:53;21.45;;;12.25;;
32216;SDS011;18709;51.140;4.088;2022-10-31T07:57:19;28.42;;;13.65;;
32216;SDS011;18709;51.140;4.088;2022-10-31T07:59:45;27.80;;;12.48;;
32216;SDS011;18709;51.140;4.088;2022-10-31T08:02:10;32.58;;;12.65;;
32216;SDS011;18709;51.140;4.088;2022-10-31T08:04:36;22.92;;;12.38;;
32216;SDS011;18709;51.140;4.088;2022-10-31T08:07:02;25.95;;;13.32;;
32216;SDS011;18709;51.140;4.088;2022-10-31T08:09:27;25.10;;;13.10;;
32216;SDS011;18709;51.140;4.088;2022-10-31T08:11:53;28.02;;;13.77;;
32216;SDS011;18709;51.140;4.088;2022-10-31T08:14:19;26.55;;;13.88;;
32216;SDS011;18709;51.140;4.088;2022-10-31T08:16:44;30.75;;;13.75;;
32216;SDS011;18709;51.140;4.088;2022-10-31T08:19:10;23.20;;;12.65;;
32216;SDS011;18709;51.140;4.088;2022-10-31T08:21:36;24.88;;;12.82;;
32216;SDS011;18709;51.140;4.088;2022-10-31T08:24:01;23.67;;;11.70;;
32216;SDS011;18709;51.140;4.088;2022-10-31T08:26:27;28.55;;;13.25;;
32216;SDS011;18709;51.140;4.088;2022-10-31T08:28:53;24.83;;;13.02;;
32216;SDS011;18709;51.140;4.088;2022-10-31T08:31:20;29.38;;;13.50;;
32216;SDS011;18709;51.140;4.088;2022-10-31T08:33:46;21.85;;;13.48;;
32216;SDS011;18709;51.140;4.088;2022-10-31T08:36:11;27.80;;;13.43;;
32216;SDS011;18709;51.140;4.088;2022-10-31T08:38:37;27.33;;;12.90;;
32216;SDS011;18709;51.140;4.088;2022-10-31T08:41:03;22.92;;;13.07;;
32216;SDS011;18709;51.140;4.088;2022-10-31T08:43:28;23.63;;;12.75;;
32216;SDS011;18709;51.140;4.088;2022-10-31T08:45:54;30.63;;;13.80;;
32216;SDS011;18709;51.140;4.088;2022-10-31T08:48:20;25.13;;;13.25;;
32216;SDS011;18709;51.140;4.088;2022-10-31T08:50:46;31.33;;;14.63;;
32216;SDS011;18709;51.140;4.088;2022-10-31T08:53:16;26.48;;;13.35;;
32216;SDS011;18709;51.140;4.088;2022-10-31T08:55:43;25.05;;;14.13;;
32216;SDS011;18709;51.140;4.088;2022-10-31T08:58:11;28.08;;;14.02;;
32216;SDS011;18709;51.140;4.088;2022-10-31T09:00:38;29.33;;;14.30;;
32216;SDS011;18709;51.140;4.088;2022-10-31T09:03:05;26.25;;;14.95;;
32216;SDS011;18709;51.140;4.088;2022-10-31T09:05:33;26.23;;;14.27;;
32216;SDS011;18709;51.140;4.088;2022-10-31T09:08:00;25.05;;;14.73;;
32216;SDS011;18709;51.140;4.088;2022-10-31T09:10:27;34.17;;;15.27;;
32216;SDS011;18709;51.140;4.088;2022-10-31T09:12:55;30.77;;;15.77;;
32216;SDS011;18709;51.140;4.088;2022-10-31T09:15:25;27.95;;;15.07;;
32216;SDS011;18709;51.140;4.088;2022-10-31T09:17:51;34.45;;;15.98;;
32216;SDS011;18709;51.140;4.088;2022-10-31T09:20:18;34.75;;;15.40;;
32216;SDS011;18709;51.140;4.088;2022-10-31T09:22:44;28.83;;;16.05;;
32216;SDS011;18709;51.140;4.088;2022-10-31T09:25:10;29.15;;;15.65;;
32216;SDS011;18709;51.140;4.088;2022-10-31T09:27:36;29.65;;;15.65;;
32216;SDS011;18709;51.140;4.088;2022-10-31T09:30:02;30.98;;;15.52;;
32216;SDS011;18709;51.140;4.088;2022-10-31T09:32:28;34.58;;;16.38;;
32216;SDS011;18709;51.140;4.088;2022-10-31T09:34:54;30.08;;;15.95;;
32216;SDS011;18709;51.140;4.088;2022-10-31T09:37:19;36.95;;;17.02;;
32216;SDS011;18709;51.140;4.088;2022-10-31T09:39:45;34.53;;;16.88;;
32216;SDS011;18709;51.140;4.088;2022-10-31T09:44:56;32.35;;;16.33;;
32216;SDS011;18709;51.140;4.088;2022-10-31T09:48:47;34.83;;;16.13;;
32216;SDS011;18709;51.140;4.088;2022-10-31T09:51:07;33.95;;;16.73;;
32216;SDS011;18709;51.140;4.088;2022-10-31T09:53:40;28.33;;;15.35;;
32216;SDS011;18709;51.140;4.088;2022-10-31T09:56:25;29.77;;;16.13;;
32216;SDS011;18709;51.140;4.088;2022-10-31T09:58:56;34.42;;;17.10;;
32216;SDS011;18709;51.140;4.088;2022-10-31T10:01:32;31.10;;;16.45;;
32216;SDS011;18709;51.140;4.088;2022-10-31T10:04:01;32.72;;;15.73;;
32216;SDS011;18709;51.140;4.088;2022-10-31T10:06:47;34.60;;;16.05;;
32216;SDS011;18709;51.140;4.088;2022-10-31T10:09:16;30.10;;;15.85;;
32216;SDS011;18709;51.140;4.088;2022-10-31T10:17:53;35.85;;;16.55;;
32216;SDS011;18709;51.140;4.088;2022-10-31T10:20:37;29.23;;;16.45;;
32216;SDS011;18709;51.140;4.088;2022-10-31T10:23:22;34.28;;;16.85;;
32216;SDS011;18709;51.140;4.088;2022-10-31T10:26:20;32.60;;;15.00;;
32216;SDS011;18709;51.140;4.088;2022-10-31T10:29:01;32.97;;;15.65;;
32216;SDS011;18709;51.140;4.088;2022-10-31T10:31:36;30.08;;;16.08;;
32216;SDS011;18709;51.140;4.088;2022-10-31T10:36:50;30.95;;;15.40;;
32216;SDS011;18709;51.140;4.088;2022-10-31T10:39:30;30.38;;;16.38;;
32216;SDS011;18709;51.140;4.088;2022-10-31T10:41:57;28.48;;;16.02;;
32216;SDS011;18709;51.140;4.088;2022-10-31T10:44:46;30.02;;;15.40;;
32216;SDS011;18709;51.140;4.088;2022-10-31T10:47:35;30.10;;;15.88;;
32216;SDS011;18709;51.140;4.088;2022-10-31T10:50:12;26.10;;;15.52;;
32216;SDS011;18709;51.140;4.088;2022-10-31T10:53:08;25.70;;;13.85;;
32216;SDS011;18709;51.140;4.088;2022-10-31T10:58:35;26.45;;;12.57;;
32216;SDS011;18709;51.140;4.088;2022-10-31T11:01:08;21.83;;;12.40;;
32216;SDS011;18709;51.140;4.088;2022-10-31T11:03:36;20.73;;;12.20;;
32216;SDS011;18709;51.140;4.088;2022-10-31T11:06:01;28.23;;;11.85;;
32216;SDS011;18709;51.140;4.088;2022-10-31T11:08:28;21.67;;;11.73;;
32216;SDS011;18709;51.140;4.088;2022-10-31T11:13:41;18.90;;;11.77;;
32216;SDS011;18709;51.140;4.088;2022-10-31T11:16:10;21.85;;;11.15;;
32216;SDS011;18709;51.140;4.088;2022-10-31T11:18:42;23.15;;;12.13;;
32216;SDS011;18709;51.140;4.088;2022-10-31T11:21:21;23.85;;;11.25;;
32216;SDS011;18709;51.140;4.088;2022-10-31T11:26:28;22.10;;;12.52;;
32216;SDS011;18709;51.140;4.088;2022-10-31T11:28:59;27.65;;;13.10;;
32216;SDS011;18709;51.140;4.088;2022-10-31T11:31:25;20.98;;;12.38;;
32216;SDS011;18709;51.140;4.088;2022-10-31T11:33:55;24.48;;;12.98;;
32216;SDS011;18709;51.140;4.088;2022-10-31T11:36:25;24.90;;;12.77;;
32216;SDS011;18709;51.140;4.088;2022-10-31T11:38:52;30.20;;;13.13;;
32216;SDS011;18709;51.140;4.088;2022-10-31T11:41:19;23.45;;;13.63;;
32216;SDS011;18709;51.140;4.088;2022-10-31T11:44:02;29.27;;;13.65;;
32216;SDS011;18709;51.140;4.088;2022-10-31T11:48:58;28.27;;;14.05;;
32216;SDS011;18709;51.140;4.088;2022-10-31T11:51:28;25.25;;;14.27;;
32216;SDS011;18709;51.140;4.088;2022-10-31T11:53:59;23.23;;;13.63;;
32216;SDS011;18709;51.140;4.088;2022-10-31T11:56:27;28.83;;;13.80;;
32216;SDS011;18709;51.140;4.088;2022-10-31T11:59:03;25.17;;;14.65;;
32216;SDS011;18709;51.140;4.088;2022-10-31T12:01:32;26.83;;;14.50;;
32216;SDS011;18709;51.140;4.088;2022-10-31T12:06:35;28.73;;;15.77;;
32216;SDS011;18709;51.140;4.088;2022-10-31T12:09:02;33.53;;;15.75;;
32216;SDS011;18709;51.140;4.088;2022-10-31T12:14:28;31.75;;;16.40;;
32216;SDS011;18709;51.140;4.088;2022-10-31T12:22:14;27.85;;;15.95;;
32216;SDS011;18709;51.140;4.088;2022-10-31T12:39:28;33.38;;;16.30;;
32216;SDS011;18709;51.140;4.088;2022-10-31T12:50:12;39.72;;;17.23;;
32216;SDS011;18709;51.140;4.088;2022-10-31T12:58:07;29.52;;;15.77;;
32216;SDS011;18709;51.140;4.088;2022-10-31T13:00:37;31.73;;;16.75;;
32216;SDS011;18709;51.140;4.088;2022-10-31T13:05:36;33.25;;;16.95;;
32216;SDS011;18709;51.140;4.088;2022-10-31T13:10:39;32.13;;;18.25;;
32216;SDS011;18709;51.140;4.088;2022-10-31T13:13:16;31.08;;;17.85;;
32216;SDS011;18709;51.140;4.088;2022-10-31T13:15:56;37.65;;;17.98;;
32216;SDS011;18709;51.140;4.088;2022-10-31T13:18:42;35.97;;;18.00;;
32216;SDS011;18709;51.140;4.088;2022-10-31T13:21:18;36.25;;;18.27;;
32216;SDS011;18709;51.140;4.088;2022-10-31T13:23:51;30.13;;;18.20;;
32216;SDS011;18709;51.140;4.088;2022-10-31T13:27:11;33.33;;;17.58;;
32216;SDS011;18709;51.140;4.088;2022-10-31T13:31:50;33.17;;;17.48;;
32216;SDS011;18709;51.140;4.088;2022-10-31T13:34:23;33.55;;;18.33;;
32216;SDS011;18709;51.140;4.088;2022-10-31T13:44:49;29.13;;;16.45;;
32216;SDS011;18709;51.140;4.088;2022-10-31T13:47:25;30.05;;;15.30;;
32216;SDS011;18709;51.140;4.088;2022-10-31T13:50:14;28.65;;;15.23;;
32216;SDS011;18709;51.140;4.088;2022-10-31T13:52:43;32.42;;;15.70;;
32216;SDS011;18709;51.140;4.088;2022-10-31T13:58:19;27.27;;;14.93;;
32216;SDS011;18709;51.140;4.088;2022-10-31T14:03:39;29.55;;;14.73;;
32216;SDS011;18709;51.140;4.088;2022-10-31T14:06:07;27.35;;;14.90;;
32216;SDS011;18709;51.140;4.088;2022-10-31T14:08:35;31.00;;;15.88;;
32216;SDS011;18709;51.140;4.088;2022-10-31T14:11:04;28.33;;;15.25;;
32216;SDS011;18709;51.140;4.088;2022-10-31T14:13:36;30.88;;;14.80;;
32216;SDS011;18709;51.140;4.088;2022-10-31T14:16:20;37.80;;;14.10;;
32216;SDS011;18709;51.140;4.088;2022-10-31T14:18:51;28.40;;;14.43;;
32216;SDS011;18709;51.140;4.088;2022-10-31T14:23:51;32.63;;;13.95;;
32216;SDS011;18709;51.140;4.088;2022-10-31T14:28:46;35.35;;;14.48;;
32216;SDS011;18709;51.140;4.088;2022-10-31T14:36:43;24.90;;;13.75;;
32216;SDS011;18709;51.140;4.088;2022-10-31T14:39:30;30.10;;;13.57;;
32216;SDS011;18709;51.140;4.088;2022-10-31T14:52:50;34.80;;;13.25;;
32216;SDS011;18709;51.140;4.088;2022-10-31T14:55:19;22.63;;;12.05;;
32216;SDS011;18709;51.140;4.088;2022-10-31T14:58:07;25.30;;;11.82;;
32216;SDS011;18709;51.140;4.088;2022-10-31T15:00:32;29.42;;;11.60;;
32216;SDS011;18709;51.140;4.088;2022-10-31T15:03:16;24.65;;;12.18;;
32216;SDS011;18709;51.140;4.088;2022-10-31T15:08:26;24.67;;;11.32;;
32216;SDS011;18709;51.140;4.088;2022-10-31T15:10:56;26.20;;;11.52;;
32216;SDS011;18709;51.140;4.088;2022-10-31T15:13:22;27.38;;;10.88;;
32216;SDS011;18709;51.140;4.088;2022-10-31T15:15:48;26.73;;;11.32;;
32216;SDS011;18709;51.140;4.088;2022-10-31T15:18:23;20.08;;;11.35;;
32216;SDS011;18709;51.140;4.088;2022-10-31T15:20:51;23.20;;;9.93;;
32216;SDS011;18709;51.140;4.088;2022-10-31T15:23:23;27.77;;;9.70;;
32216;SDS011;18709;51.140;4.088;2022-10-31T15:25:57;24.38;;;9.18;;
32216;SDS011;18709;51.140;4.088;2022-10-31T15:28:28;20.55;;;8.75;;
32216;SDS011;18709;51.140;4.088;2022-10-31T15:30:56;26.40;;;9.02;;
32216;SDS011;18709;51.140;4.088;2022-10-31T15:33:25;23.13;;;8.88;;
32216;SDS011;18709;51.140;4.088;2022-10-31T15:36:00;21.27;;;9.40;;
32216;SDS011;18709;51.140;4.088;2022-10-31T15:38:27;20.55;;;8.50;;
32216;SDS011;18709;51.140;4.088;2022-10-31T15:40:55;20.13;;;9.07;;
32216;SDS011;18709;51.140;4.088;2022-10-31T15:43:27;19.50;;;8.85;;
32216;SDS011;18709;51.140;4.088;2022-10-31T15:46:01;20.30;;;8.85;;
32216;SDS011;18709;51.140;4.088;2022-10-31T15:48:29;21.25;;;8.82;;
32216;SDS011;18709;51.140;4.088;2022-10-31T15:50:59;17.95;;;8.80;;
32216;SDS011;18709;51.140;4.088;2022-10-31T15:53:33;23.42;;;9.70;;
32216;SDS011;18709;51.140;4.088;2022-10-31T15:56:06;20.85;;;9.00;;
32216;SDS011;18709;51.140;4.088;2022-10-31T15:58:39;21.30;;;9.52;;
32216;SDS011;18709;51.140;4.088;2022-10-31T16:04:01;21.25;;;10.15;;
32216;SDS011;18709;51.140;4.088;2022-10-31T16:06:29;22.13;;;8.80;;
32216;SDS011;18709;51.140;4.088;2022-10-31T16:08:56;26.15;;;9.32;;
32216;SDS011;18709;51.140;4.088;2022-10-31T16:11:35;23.00;;;9.98;;
32216;SDS011;18709;51.140;4.088;2022-10-31T16:14:05;23.98;;;9.93;;
32216;SDS011;18709;51.140;4.088;2022-10-31T16:16:48;25.58;;;10.27;;
32216;SDS011;18709;51.140;4.088;2022-10-31T16:19:34;19.05;;;9.32;;
32216;SDS011;18709;51.140;4.088;2022-10-31T16:22:18;27.73;;;9.60;;
32216;SDS011;18709;51.140;4.088;2022-10-31T16:27:33;25.83;;;10.20;;
32216;SDS011;18709;51.140;4.088;2022-10-31T16:30:01;24.45;;;10.63;;
32216;SDS011;18709;51.140;4.088;2022-10-31T16:32:33;26.25;;;9.85;;
32216;SDS011;18709;51.140;4.088;2022-10-31T16:37:32;29.65;;;10.63;;
32216;SDS011;18709;51.140;4.088;2022-10-31T16:39:58;26.50;;;11.15;;
32216;SDS011;18709;51.140;4.088;2022-10-31T16:42:24;26.42;;;11.55;;
32216;SDS011;18709;51.140;4.088;2022-10-31T16:44:51;25.23;;;10.20;;
32216;SDS011;18709;51.140;4.088;2022-10-31T16:47:17;33.20;;;10.73;;
32216;SDS011;18709;51.140;4.088;2022-10-31T16:49:44;28.05;;;12.07;;
32216;SDS011;18709;51.140;4.088;2022-10-31T16:52:13;34.58;;;14.82;;
32216;SDS011;18709;51.140;4.088;2022-10-31T16:54:39;29.63;;;16.10;;
32216;SDS011;18709;51.140;4.088;2022-10-31T16:57:05;31.15;;;14.68;;
32216;SDS011;18709;51.140;4.088;2022-10-31T16:59:31;26.95;;;14.15;;
32216;SDS011;18709;51.140;4.088;2022-10-31T17:01:58;30.08;;;11.90;;
32216;SDS011;18709;51.140;4.088;2022-10-31T17:04:26;24.27;;;11.30;;
32216;SDS011;18709;51.140;4.088;2022-10-31T17:06:51;24.10;;;11.27;;
32216;SDS011;18709;51.140;4.088;2022-10-31T17:09:17;23.65;;;11.05;;
32216;SDS011;18709;51.140;4.088;2022-10-31T17:11:46;22.30;;;11.98;;
32216;SDS011;18709;51.140;4.088;2022-10-31T17:14:15;24.63;;;11.38;;
32216;SDS011;18709;51.140;4.088;2022-10-31T17:16:42;23.95;;;12.27;;
32216;SDS011;18709;51.140;4.088;2022-10-31T17:19:11;32.72;;;14.38;;
32216;SDS011;18709;51.140;4.088;2022-10-31T17:21:38;30.00;;;11.73;;